Time;durP1;ratioP1;P1;durP2;ratioP2;P2;SDS_P1;SDS_P2;PMS_P1;PMS_P2;Temp;Humidity;BMP_temperature;BMP_pressure;BME280_temperature;BME280_humidity;BME280_pressure;Samples;Min_cycle;Max_cycle;Signal;HPM_P1;HPM_P2
2021/10/11 00:00:00;;;;;;;9.77;7.15;;;10.90;58.90;;;;;;4995637;28;20434;-51
2021/10/11 00:02:26;;;;;;;11.63;8.75;;;10.90;59.00;;;;;;4995195;28;20057;-51
2021/10/11 00:04:52;;;;;;;9.60;8.23;;;10.90;59.00;;;;;;4995171;28;20034;-51
2021/10/11 00:07:17;;;;;;;12.73;9.05;;;10.90;59.10;;;;;;4995432;28;20143;-51
2021/10/11 00:09:43;;;;;;;11.75;8.45;;;10.90;59.10;;;;;;4978398;28;20467;-51
2021/10/11 00:12:09;;;;;;;10.00;8.18;;;10.90;58.90;;;;;;4993276;28;20500;-51
2021/10/11 00:14:35;;;;;;;11.80;8.73;;;10.80;58.90;;;;;;4995204;28;20113;-51
2021/10/11 00:17:00;;;;;;;9.77;8.15;;;10.80;58.90;;;;;;4994872;28;20026;-51
2021/10/11 00:19:27;;;;;;;9.68;7.55;;;10.80;59.00;;;;;;4995049;28;20026;-51
2021/10/11 00:21:52;;;;;;;10.55;8.07;;;10.80;59.10;;;;;;4994934;28;20088;-51
2021/10/11 00:24:18;;;;;;;12.07;8.57;;;10.80;59.30;;;;;;4994824;28;20117;-51
2021/10/11 00:26:44;;;;;;;12.05;7.97;;;10.80;59.30;;;;;;4994469;28;20041;-51
2021/10/11 00:29:09;;;;;;;9.93;8.05;;;10.80;59.10;;;;;;4994684;28;20058;-51
2021/10/11 00:31:35;;;;;;;12.27;8.00;;;10.70;59.20;;;;;;4994841;28;20023;-51
2021/10/11 00:34:00;;;;;;;12.07;8.50;;;10.80;59.30;;;;;;4994691;28;20352;-51
2021/10/11 00:36:26;;;;;;;10.63;8.15;;;10.70;59.20;;;;;;4994631;28;20030;-51
2021/10/11 00:38:52;;;;;;;8.75;6.65;;;10.70;59.30;;;;;;4994617;28;20073;-51
2021/10/11 00:41:18;;;;;;;12.18;8.35;;;10.70;59.20;;;;;;4994667;28;20382;-51
2021/10/11 00:43:45;;;;;;;10.57;7.10;;;10.70;59.20;;;;;;4979194;28;20041;-51
2021/10/11 00:46:11;;;;;;;12.82;8.48;;;10.70;59.20;;;;;;4992795;28;20377;-51
2021/10/11 00:48:37;;;;;;;9.73;7.57;;;10.70;59.10;;;;;;4994371;28;20383;-51
2021/10/11 00:51:05;;;;;;;8.90;7.00;;;10.70;59.10;;;;;;4994402;28;20034;-51
2021/10/11 00:53:31;;;;;;;10.85;7.32;;;10.70;59.20;;;;;;4994119;28;20119;-51
2021/10/11 00:55:57;;;;;;;10.55;6.72;;;10.70;59.20;;;;;;4994327;28;20018;-51
2021/10/11 00:58:23;;;;;;;10.02;7.25;;;10.70;59.30;;;;;;4993976;28;20379;-51
2021/10/11 01:00:49;;;;;;;9.60;6.63;;;10.70;59.30;;;;;;4994075;28;20014;-51
2021/10/11 01:03:15;;;;;;;9.38;6.85;;;10.70;59.40;;;;;;4989724;28;20027;-51
2021/10/11 01:05:40;;;;;;;8.75;7.07;;;10.70;59.40;;;;;;4984902;28;20027;-51
2021/10/11 01:08:06;;;;;;;9.45;6.90;;;10.70;59.20;;;;;;4974630;28;20034;-51
2021/10/11 01:10:32;;;;;;;8.65;6.47;;;10.70;59.30;;;;;;4974665;28;20027;-51
2021/10/11 01:12:58;;;;;;;10.63;7.35;;;10.70;59.20;;;;;;4974597;28;20153;-51
2021/10/11 01:15:24;;;;;;;10.77;7.28;;;10.70;59.20;;;;;;4974616;28;20449;-51
2021/10/11 01:17:49;;;;;;;15.45;9.00;;;10.70;59.30;;;;;;4985144;28;20125;-51
2021/10/11 01:20:15;;;;;;;10.40;7.57;;;10.60;59.20;;;;;;4993820;28;20037;-51
2021/10/11 01:22:43;;;;;;;9.68;7.13;;;10.70;59.30;;;;;;4993272;28;20031;-51
2021/10/11 01:25:12;;;;;;;14.48;9.10;;;10.60;59.30;;;;;;4993626;28;20077;-51
2021/10/11 01:27:38;;;;;;;9.30;7.28;;;10.60;59.30;;;;;;4993825;28;20089;-52
2021/10/11 01:30:05;;;;;;;8.50;7.05;;;10.60;59.30;;;;;;4993275;28;20086;-51
2021/10/11 01:32:32;;;;;;;10.15;7.38;;;10.60;59.40;;;;;;4993710;28;20482;-51
2021/10/11 01:34:58;;;;;;;12.13;8.65;;;10.60;59.30;;;;;;4993575;28;20061;-51
2021/10/11 01:37:24;;;;;;;8.63;6.78;;;10.60;59.40;;;;;;4993714;28;20077;-51
2021/10/11 01:39:49;;;;;;;9.70;7.35;;;10.60;59.40;;;;;;4993526;28;20406;-51
2021/10/11 01:42:16;;;;;;;9.52;7.05;;;10.60;59.40;;;;;;4993868;28;20047;-51
2021/10/11 01:44:42;;;;;;;9.30;7.05;;;10.50;59.40;;;;;;4993561;28;20084;-51
2021/10/11 01:47:08;;;;;;;9.52;7.63;;;10.60;59.50;;;;;;4993635;28;20550;-51
2021/10/11 01:49:34;;;;;;;8.73;7.00;;;10.60;59.50;;;;;;4976921;28;20035;-51
2021/10/11 01:51:59;;;;;;;11.38;7.90;;;10.50;59.50;;;;;;4974420;28;20378;-52
2021/10/11 01:54:25;;;;;;;12.70;8.35;;;10.50;59.50;;;;;;4992080;28;20117;-51
2021/10/11 01:56:51;;;;;;;10.35;7.72;;;10.50;59.50;;;;;;4993546;28;20026;-51
2021/10/11 01:59:16;;;;;;;10.30;7.13;;;10.50;59.50;;;;;;4993533;28;20030;-51
2021/10/11 02:01:42;;;;;;;9.30;7.30;;;10.50;59.50;;;;;;4993431;28;20080;-52
2021/10/11 02:04:07;;;;;;;9.30;7.53;;;10.50;59.60;;;;;;4993430;28;20161;-51
2021/10/11 02:06:33;;;;;;;11.18;8.52;;;10.50;59.60;;;;;;4975193;28;20110;-51
2021/10/11 02:08:59;;;;;;;10.98;7.55;;;10.50;59.70;;;;;;4973988;28;20074;-52
2021/10/11 02:11:25;;;;;;;10.15;7.30;;;10.50;59.70;;;;;;4993342;28;20109;-51
2021/10/11 02:13:50;;;;;;;9.93;7.38;;;10.50;59.80;;;;;;4993267;28;20023;-51
2021/10/11 02:16:16;;;;;;;10.93;8.27;;;10.50;59.80;;;;;;4993632;28;20022;-51
2021/10/11 02:18:42;;;;;;;11.13;7.85;;;10.50;59.90;;;;;;4993117;28;20046;-51
2021/10/11 02:21:07;;;;;;;12.65;8.88;;;10.50;59.90;;;;;;4992921;28;20029;-51
2021/10/11 02:23:33;;;;;;;10.25;7.50;;;10.50;60.00;;;;;;4993216;28;20096;-51
2021/10/11 02:25:58;;;;;;;9.45;7.57;;;10.40;60.10;;;;;;4993249;28;20026;-51
2021/10/11 02:28:24;;;;;;;11.23;7.85;;;10.40;60.10;;;;;;4992979;28;20030;-52
2021/10/11 02:30:50;;;;;;;11.68;7.65;;;10.40;60.10;;;;;;4993127;28;20497;-51
2021/10/11 02:33:16;;;;;;;10.13;7.53;;;10.40;60.20;;;;;;4993150;28;20030;-51
2021/10/11 02:35:41;;;;;;;10.02;7.07;;;10.40;60.20;;;;;;4993194;28;20045;-51
2021/10/11 02:38:07;;;;;;;11.43;8.43;;;10.30;60.20;;;;;;4982820;28;20471;-51
2021/10/11 02:40:33;;;;;;;12.63;8.32;;;10.40;60.30;;;;;;4977369;28;20055;-51
2021/10/11 02:42:58;;;;;;;10.18;7.30;;;10.40;60.30;;;;;;4977248;28;20031;-51
2021/10/11 02:45:24;;;;;;;9.40;7.07;;;10.40;60.40;;;;;;4996703;28;20026;-52
2021/10/11 02:47:50;;;;;;;11.95;9.30;;;10.30;60.40;;;;;;4996646;28;20492;-51
2021/10/11 02:50:15;;;;;;;10.15;7.90;;;10.30;60.50;;;;;;4996596;28;20026;-52
2021/10/11 02:52:41;;;;;;;8.60;7.05;;;10.30;60.50;;;;;;4993276;28;20356;-51
2021/10/11 02:55:07;;;;;;;11.13;7.53;;;10.30;60.90;;;;;;4977375;28;20026;-51
2021/10/11 02:57:33;;;;;;;11.05;8.23;;;10.30;60.70;;;;;;4977199;28;20023;-51
2021/10/11 02:59:58;;;;;;;11.48;7.88;;;10.30;60.90;;;;;;4977362;28;20146;-51
2021/10/11 03:02:24;;;;;;;9.25;7.38;;;10.30;60.80;;;;;;4996205;28;20605;-51
2021/10/11 03:04:50;;;;;;;10.30;7.70;;;10.30;60.90;;;;;;4996570;28;20033;-51
2021/10/11 03:07:17;;;;;;;11.50;9.15;;;10.30;61.00;;;;;;4996564;28;20108;-51
2021/10/11 03:09:44;;;;;;;10.88;8.00;;;10.30;61.20;;;;;;4996179;28;20410;-51
2021/10/11 03:12:10;;;;;;;10.45;7.13;;;10.30;61.30;;;;;;4996262;28;20023;-51
2021/10/11 03:14:35;;;;;;;13.95;9.30;;;10.20;61.30;;;;;;4996405;28;20034;-51
2021/10/11 03:17:01;;;;;;;11.50;8.40;;;10.20;61.40;;;;;;4996134;28;20386;-51
2021/10/11 03:19:27;;;;;;;9.88;7.68;;;10.30;61.60;;;;;;4996083;28;20081;-51
2021/10/11 03:21:53;;;;;;;10.93;8.68;;;10.20;61.60;;;;;;4996175;28;20077;-51
2021/10/11 03:24:18;;;;;;;11.57;7.75;;;10.20;61.70;;;;;;4995715;28;20073;-51
2021/10/11 03:26:44;;;;;;;10.40;7.53;;;10.20;61.80;;;;;;4983733;28;20066;-52
2021/10/11 03:29:10;;;;;;;11.95;8.38;;;10.20;61.80;;;;;;4995994;28;20033;-51
2021/10/11 03:31:35;;;;;;;11.23;7.80;;;10.20;62.00;;;;;;4996009;28;20018;-51
2021/10/11 03:34:01;;;;;;;11.48;8.52;;;10.20;62.10;;;;;;4995735;28;20485;-51
2021/10/11 03:36:27;;;;;;;10.70;7.70;;;10.20;62.20;;;;;;4996079;28;20030;-51
2021/10/11 03:38:53;;;;;;;9.30;7.53;;;10.20;62.30;;;;;;4995216;28;20046;-51
2021/10/11 03:41:19;;;;;;;12.10;7.90;;;10.20;62.50;;;;;;4994288;28;20447;-51
2021/10/11 03:43:44;;;;;;;11.27;8.77;;;10.20;62.50;;;;;;4994367;28;20105;-51
2021/10/11 03:46:10;;;;;;;12.32;8.90;;;10.20;62.60;;;;;;4995207;28;20026;-51
2021/10/11 03:48:36;;;;;;;13.70;8.73;;;10.20;62.70;;;;;;4994579;28;20173;-52
2021/10/11 03:51:01;;;;;;;11.55;8.38;;;10.20;62.70;;;;;;4996015;28;20030;-51
2021/10/11 03:53:27;;;;;;;14.43;10.55;;;10.20;62.90;;;;;;4994915;28;20517;-51
2021/10/11 03:55:53;;;;;;;15.95;10.50;;;10.20;62.90;;;;;;4995596;28;20030;-51
2021/10/11 03:58:18;;;;;;;13.32;9.38;;;10.20;63.20;;;;;;4982806;28;20037;-51
2021/10/11 04:00:44;;;;;;;13.85;10.20;;;10.20;63.00;;;;;;4981236;28;20022;-51
2021/10/11 04:03:09;;;;;;;9.82;8.25;;;10.10;63.00;;;;;;4989726;28;20015;-51
2021/10/11 04:05:36;;;;;;;12.40;8.57;;;10.10;63.30;;;;;;4985406;28;20058;-51
2021/10/11 04:08:13;;;;;;;11.88;9.23;;;10.10;64.20;;;;;;4974931;28;20037;-51
2021/10/11 04:10:49;;;;;;;11.18;8.82;;;10.10;63.60;;;;;;4975997;28;20023;-51
2021/10/11 04:13:20;;;;;;;10.80;8.23;;;10.10;63.50;;;;;;4975767;28;20031;-51
2021/10/11 04:15:46;;;;;;;10.57;8.52;;;10.10;63.50;;;;;;4975721;28;20031;-52
2021/10/11 04:18:11;;;;;;;13.10;9.27;;;10.10;63.50;;;;;;4989773;28;20048;-53
2021/10/11 04:20:37;;;;;;;12.68;8.80;;;10.10;63.50;;;;;;4995214;28;20058;-51
2021/10/11 04:23:02;;;;;;;12.57;8.95;;;10.10;63.60;;;;;;4994667;28;20057;-52
2021/10/11 04:25:28;;;;;;;14.25;10.57;;;10.10;63.60;;;;;;4994780;28;20038;-51
2021/10/11 04:27:54;;;;;;;11.82;10.10;;;10.10;63.70;;;;;;4994741;28;20435;-51
2021/10/11 04:30:19;;;;;;;11.18;8.40;;;10.10;63.80;;;;;;4987819;28;20055;-51
2021/10/11 04:32:45;;;;;;;11.93;9.18;;;10.10;63.70;;;;;;4975526;28;20050;-51
2021/10/11 04:35:11;;;;;;;10.63;8.95;;;10.00;63.90;;;;;;4975344;28;20019;-51
2021/10/11 04:37:39;;;;;;;11.13;8.43;;;10.00;63.80;;;;;;4983983;28;20026;-51
2021/10/11 04:40:05;;;;;;;12.30;8.77;;;10.10;63.90;;;;;;4994501;28;20054;-52
2021/10/11 04:42:31;;;;;;;13.13;10.32;;;10.10;63.90;;;;;;4994146;28;20145;-54
2021/10/11 04:44:57;;;;;;;15.98;9.82;;;10.10;64.00;;;;;;4994862;28;20470;-51
2021/10/11 04:47:22;;;;;;;12.75;9.30;;;10.10;64.10;;;;;;4979594;28;20387;-51
2021/10/11 04:49:48;;;;;;;12.40;9.48;;;10.10;63.90;;;;;;4975011;28;20494;-54
2021/10/11 04:52:14;;;;;;;11.50;9.15;;;10.10;63.90;;;;;;4975149;28;20023;-51
2021/10/11 04:54:39;;;;;;;11.80;8.93;;;10.10;63.90;;;;;;4974808;28;20471;-51
2021/10/11 04:57:05;;;;;;;10.75;8.82;;;10.10;63.90;;;;;;4974977;28;20407;-52
2021/10/11 04:59:30;;;;;;;11.45;8.80;;;10.10;63.90;;;;;;4993005;28;20022;-52
2021/10/11 05:01:56;;;;;;;11.73;8.73;;;10.20;63.80;;;;;;4991809;28;20026;-52
2021/10/11 05:04:22;;;;;;;12.52;9.75;;;10.20;63.80;;;;;;4989628;28;20073;-52
2021/10/11 05:06:47;;;;;;;13.27;8.88;;;10.20;63.90;;;;;;4982890;28;20037;-51
2021/10/11 05:09:13;;;;;;;11.02;8.25;;;10.30;63.90;;;;;;4988574;28;20026;-51
2021/10/11 05:11:39;;;;;;;11.02;8.45;;;10.30;63.70;;;;;;4993980;28;20022;-51
2021/10/11 05:14:04;;;;;;;11.95;8.60;;;10.40;63.70;;;;;;4993787;28;20502;-51
2021/10/11 05:16:32;;;;;;;11.35;9.13;;;10.40;63.70;;;;;;4992965;28;20042;-51
2021/10/11 05:18:59;;;;;;;13.45;9.02;;;10.40;63.60;;;;;;4986849;28;20073;-51
2021/10/11 05:21:25;;;;;;;11.75;9.70;;;10.50;63.60;;;;;;4987814;28;20045;-51
2021/10/11 05:23:51;;;;;;;13.30;10.52;;;10.50;63.70;;;;;;4993132;28;20026;-52
2021/10/11 05:26:16;;;;;;;11.70;9.05;;;10.50;63.80;;;;;;4990090;28;20463;-51
2021/10/11 05:28:42;;;;;;;12.90;9.52;;;10.50;63.70;;;;;;4980304;28;20018;-50
2021/10/11 05:31:08;;;;;;;12.43;9.38;;;10.50;63.70;;;;;;4981520;28;20026;-50
2021/10/11 05:33:34;;;;;;;11.10;8.32;;;10.50;63.70;;;;;;4984300;28;20037;-53
2021/10/11 05:36:01;;;;;;;11.65;8.52;;;10.50;63.70;;;;;;4988525;28;20114;-50
2021/10/11 05:38:27;;;;;;;13.35;10.07;;;10.50;63.70;;;;;;4990402;28;20422;-50
2021/10/11 05:40:53;;;;;;;13.55;9.25;;;10.50;63.70;;;;;;5006417;28;20076;-51
2021/10/11 05:43:19;;;;;;;12.35;10.13;;;10.40;63.80;;;;;;5012518;28;20038;-50
2021/10/11 05:45:44;;;;;;;14.23;10.23;;;10.40;64.10;;;;;;5011280;28;20040;-51
2021/10/11 05:48:10;;;;;;;10.98;9.27;;;10.40;64.00;;;;;;5013050;28;20402;-51
2021/10/11 05:50:36;;;;;;;14.10;9.35;;;10.40;64.00;;;;;;5009468;28;20056;-52
2021/10/11 05:53:01;;;;;;;12.73;9.80;;;10.40;64.50;;;;;;5001698;28;20023;-50
2021/10/11 05:55:28;;;;;;;14.15;10.07;;;10.50;64.60;;;;;;5010766;28;20022;-54
2021/10/11 05:57:54;;;;;;;10.63;9.00;;;10.50;64.50;;;;;;5000604;28;20494;-53
2021/10/11 06:00:20;;;;;;;13.88;9.23;;;10.60;64.40;;;;;;5004725;28;20022;-52
2021/10/11 06:02:45;;;;;;;13.43;9.13;;;10.70;64.40;;;;;;5002919;28;20450;-54
2021/10/11 06:05:11;;;;;;;11.32;8.80;;;10.70;64.10;;;;;;5005259;28;20022;-52
2021/10/11 06:07:40;;;;;;;12.43;9.63;;;10.70;63.90;;;;;;5007912;28;20489;-51
2021/10/11 06:10:06;;;;;;;12.40;9.20;;;10.70;63.90;;;;;;4994759;28;20546;-55
2021/10/11 06:12:31;;;;;;;13.45;8.80;;;10.70;63.80;;;;;;5005905;28;20022;-54
2021/10/11 06:15:01;;;;;;;11.88;9.82;;;10.70;63.70;;;;;;5002512;28;20456;-53
2021/10/11 06:17:27;;;;;;;12.52;9.27;;;10.70;63.80;;;;;;5005963;28;20113;-52
2021/10/11 06:19:53;;;;;;;10.93;8.75;;;10.70;63.90;;;;;;5001529;28;20038;-51
2021/10/11 06:22:19;;;;;;;10.93;9.32;;;10.70;64.10;;;;;;5000935;28;20034;-52
2021/10/11 06:24:45;;;;;;;15.70;11.85;;;10.70;64.10;;;;;;4999445;28;20091;-53
2021/10/11 06:27:11;;;;;;;11.80;9.65;;;10.70;64.10;;;;;;5008619;28;20033;-52
2021/10/11 06:29:36;;;;;;;13.95;10.07;;;10.70;64.10;;;;;;5003481;28;20703;-53
2021/10/11 06:32:02;;;;;;;15.43;11.98;;;10.80;64.20;;;;;;5002847;28;20104;-55
2021/10/11 06:34:28;;;;;;;15.48;11.60;;;10.80;64.30;;;;;;5004290;28;20036;-52
2021/10/11 06:36:54;;;;;;;14.93;10.27;;;10.80;64.20;;;;;;5002709;28;20026;-52
2021/10/11 06:39:19;;;;;;;14.63;10.82;;;10.90;64.20;;;;;;4996060;28;20101;-53
2021/10/11 06:41:45;;;;;;;11.60;8.82;;;10.90;64.30;;;;;;4982647;28;20061;-55
2021/10/11 06:44:11;;;;;;;16.10;11.45;;;10.90;64.20;;;;;;4983166;28;20042;-54
2021/10/11 06:46:36;;;;;;;12.88;10.23;;;11.00;64.20;;;;;;4973833;28;20125;-53
2021/10/11 06:49:02;;;;;;;14.10;10.88;;;11.00;64.10;;;;;;4977708;28;20026;-56
2021/10/11 06:51:28;;;;;;;12.15;9.10;;;11.00;64.10;;;;;;4982171;28;20073;-53
2021/10/11 06:53:53;;;;;;;12.75;10.13;;;11.00;64.10;;;;;;4980548;28;20049;-53
2021/10/11 06:56:19;;;;;;;12.45;9.48;;;11.10;64.00;;;;;;4977750;28;20045;-53
2021/10/11 06:58:45;;;;;;;13.75;8.35;;;11.10;63.80;;;;;;4974140;28;20041;-54
2021/10/11 07:01:12;;;;;;;11.68;9.25;;;11.20;63.70;;;;;;4982186;28;20377;-56
2021/10/11 07:03:38;;;;;;;13.63;11.00;;;11.20;63.60;;;;;;4976638;28;20072;-54
2021/10/11 07:06:07;;;;;;;13.57;10.00;;;11.20;64.10;;;;;;4975550;28;20117;-54
2021/10/11 07:08:33;;;;;;;14.65;10.13;;;11.30;63.40;;;;;;4957201;28;20125;-55
2021/10/11 07:10:59;;;;;;;14.50;8.93;;;11.30;63.40;;;;;;4976235;28;20062;-56
2021/10/11 07:13:25;;;;;;;14.18;9.57;;;11.30;63.20;;;;;;4974031;28;20045;-56
2021/10/11 07:15:52;;;;;;;10.95;8.30;;;11.30;63.00;;;;;;4975978;28;20035;-54
2021/10/11 07:18:17;;;;;;;12.48;9.32;;;11.40;62.80;;;;;;4971057;28;20035;-57
2021/10/11 07:20:45;;;;;;;10.82;8.50;;;11.40;62.90;;;;;;4970730;28;20034;-55
2021/10/11 07:23:11;;;;;;;14.38;10.45;;;11.40;62.80;;;;;;4973965;28;20033;-52
2021/10/11 07:25:37;;;;;;;12.88;9.48;;;11.40;62.70;;;;;;4972545;28;20041;-53
2021/10/11 07:28:03;;;;;;;12.25;8.60;;;11.50;62.90;;;;;;4958674;28;20038;-54
2021/10/11 07:30:31;;;;;;;15.27;9.55;;;11.50;62.80;;;;;;4959822;28;20030;-55
2021/10/11 07:32:57;;;;;;;12.20;9.68;;;11.60;62.80;;;;;;4969358;28;20769;-57
2021/10/11 07:35:22;;;;;;;14.93;10.27;;;11.60;62.70;;;;;;4970893;28;20042;-54
2021/10/11 07:37:49;;;;;;;12.27;8.95;;;11.60;62.70;;;;;;4972478;28;20486;-52
2021/10/11 07:40:15;;;;;;;12.55;9.52;;;11.70;62.70;;;;;;4970824;28;20054;-57
2021/10/11 07:42:41;;;;;;;12.68;9.00;;;11.70;62.70;;;;;;4962346;28;20069;-57
2021/10/11 07:45:07;;;;;;;11.52;9.00;;;11.70;62.70;;;;;;4958472;28;20137;-54
2021/10/11 07:47:33;;;;;;;10.88;8.95;;;11.70;62.60;;;;;;4962952;28;20045;-54
2021/10/11 07:49:58;;;;;;;10.77;8.63;;;11.80;62.80;;;;;;4969362;28;20463;-55
2021/10/11 07:52:24;;;;;;;14.32;8.40;;;11.80;62.70;;;;;;4972157;28;20030;-55
2021/10/11 07:54:50;;;;;;;10.25;7.90;;;11.80;62.70;;;;;;4973656;28;20034;-54
2021/10/11 07:57:16;;;;;;;9.88;7.88;;;11.90;62.50;;;;;;4972478;28;20042;-54
2021/10/11 07:59:42;;;;;;;11.82;8.50;;;11.90;62.50;;;;;;4972162;28;20034;-54
2021/10/11 08:02:08;;;;;;;11.57;8.38;;;12.00;62.50;;;;;;4970351;28;20129;-55
2021/10/11 08:04:34;;;;;;;12.27;8.68;;;12.00;62.30;;;;;;4968105;28;20030;-52
2021/10/11 08:07:00;;;;;;;11.95;9.68;;;12.00;62.10;;;;;;4971511;28;20042;-53
2021/10/11 08:09:25;;;;;;;12.65;8.82;;;12.10;62.10;;;;;;4972789;28;20382;-52
2021/10/11 08:11:51;;;;;;;10.63;8.55;;;12.10;62.30;;;;;;4969975;28;20027;-54
2021/10/11 08:14:17;;;;;;;10.63;8.18;;;12.10;62.10;;;;;;4959174;28;20038;-54
2021/10/11 08:16:42;;;;;;;12.80;8.65;;;12.10;61.90;;;;;;4964890;28;20682;-53
2021/10/11 08:19:09;;;;;;;10.52;8.63;;;12.20;62.00;;;;;;4952776;28;20041;-54
2021/10/11 08:21:36;;;;;;;10.98;8.63;;;12.20;61.90;;;;;;4959938;28;20137;-55
2021/10/11 08:24:04;;;;;;;11.10;8.60;;;12.20;62.00;;;;;;4961470;28;20038;-54
2021/10/11 08:26:30;;;;;;;12.80;9.82;;;12.20;62.00;;;;;;4963499;28;20030;-54
2021/10/11 08:28:56;;;;;;;14.85;9.38;;;12.20;62.00;;;;;;4963523;28;20653;-54
2021/10/11 08:31:22;;;;;;;12.02;9.15;;;12.20;62.00;;;;;;4956124;28;20512;-54
2021/10/11 08:33:48;;;;;;;13.80;8.68;;;12.20;62.10;;;;;;4959094;28;20030;-53
2021/10/11 08:36:15;;;;;;;14.88;8.55;;;12.30;62.20;;;;;;4962088;28;20081;-54
2021/10/11 08:38:41;;;;;;;10.73;8.48;;;12.30;62.20;;;;;;4959815;28;20027;-52
2021/10/11 08:41:08;;;;;;;10.07;8.00;;;12.30;62.20;;;;;;4965905;28;20030;-53
2021/10/11 08:43:38;;;;;;;11.57;8.88;;;12.30;62.00;;;;;;4959116;28;20410;-55
2021/10/11 08:46:05;;;;;;;11.00;8.60;;;12.40;62.20;;;;;;4954420;28;20513;-55
2021/10/11 08:48:32;;;;;;;12.48;9.57;;;12.40;62.00;;;;;;4966345;28;20105;-52
2021/10/11 08:50:58;;;;;;;11.88;8.93;;;12.40;62.20;;;;;;4961614;28;20034;-51
2021/10/11 08:53:24;;;;;;;11.88;9.45;;;12.40;62.10;;;;;;4966853;28;20036;-54
2021/10/11 08:55:50;;;;;;;12.52;8.93;;;12.40;62.00;;;;;;4965627;28;20499;-54
2021/10/11 08:58:16;;;;;;;12.07;9.00;;;12.40;62.00;;;;;;4961993;28;20113;-53
2021/10/11 09:00:42;;;;;;;14.50;10.48;;;12.40;62.00;;;;;;4955896;28;20045;-54
2021/10/11 09:03:09;;;;;;;11.88;9.02;;;12.40;62.00;;;;;;4962703;28;21825;-54
2021/10/11 09:05:38;;;;;;;12.10;9.13;;;12.40;61.90;;;;;;4967001;28;20045;-54
2021/10/11 09:08:06;;;;;;;12.80;8.95;;;12.40;61.90;;;;;;4961945;28;20038;-56
2021/10/11 09:10:51;;;;;;;10.32;8.65;;;12.50;62.10;;;;;;4961942;28;20023;-57
2021/10/11 09:13:17;;;;;;;11.57;8.50;;;12.50;62.00;;;;;;4963348;28;20041;-54
2021/10/11 09:15:43;;;;;;;13.00;9.32;;;12.50;61.80;;;;;;4966755;28;20026;-55
2021/10/11 09:18:09;;;;;;;10.77;8.57;;;12.50;61.80;;;;;;4965494;28;20093;-55
2021/10/11 09:20:36;;;;;;;13.32;8.23;;;12.60;61.90;;;;;;4965232;28;20050;-56
2021/10/11 09:23:03;;;;;;;11.52;8.13;;;12.60;62.00;;;;;;4967170;28;20041;-55
2021/10/11 09:25:34;;;;;;;9.43;7.88;;;12.60;61.70;;;;;;4964440;28;20153;-56
2021/10/11 09:28:00;;;;;;;9.98;7.00;;;12.60;61.40;;;;;;4966315;28;20092;-56
2021/10/11 09:30:30;;;;;;;9.57;7.60;;;12.60;60.80;;;;;;4963757;28;20026;-56
2021/10/11 09:33:12;;;;;;;9.38;7.45;;;12.70;60.40;;;;;;4943157;28;20058;-56
2021/10/11 09:35:40;;;;;;;10.93;8.02;;;12.70;60.10;;;;;;4961602;28;20180;-57
2021/10/11 09:38:17;;;;;;;10.75;8.00;;;12.70;60.30;;;;;;4965937;28;20478;-53
2021/10/11 09:40:43;;;;;;;8.80;6.70;;;12.70;60.50;;;;;;4961644;28;20058;-56
2021/10/11 09:43:14;;;;;;;7.97;6.60;;;12.70;60.30;;;;;;4965572;28;20049;-55
2021/10/11 09:45:40;;;;;;;8.70;7.05;;;12.80;60.30;;;;;;4970977;28;20039;-58
2021/10/11 09:48:07;;;;;;;10.25;6.90;;;12.80;60.20;;;;;;4971267;28;20037;-57
2021/10/11 09:50:33;;;;;;;10.48;7.20;;;12.80;60.00;;;;;;4971245;28;20037;-57
2021/10/11 09:52:59;;;;;;;7.85;6.35;;;12.90;60.10;;;;;;4966247;28;20042;-57
2021/10/11 09:55:25;;;;;;;9.32;6.57;;;12.90;60.10;;;;;;4963894;28;20144;-54
2021/10/11 09:57:51;;;;;;;8.43;6.50;;;12.90;60.00;;;;;;4964851;28;20042;-55
2021/10/11 10:00:17;;;;;;;9.52;7.00;;;13.00;59.50;;;;;;4964848;28;20030;-54
2021/10/11 10:02:46;;;;;;;9.85;6.45;;;13.00;58.90;;;;;;4971167;28;20046;-54
2021/10/11 10:05:23;;;;;;;8.65;6.60;;;13.00;58.70;;;;;;4971032;28;20699;-55
2021/10/11 10:07:51;;;;;;;9.60;6.82;;;13.00;58.90;;;;;;4971937;28;20030;-54
2021/10/11 10:10:20;;;;;;;9.50;6.30;;;13.00;58.70;;;;;;4964674;28;20031;-55
2021/10/11 10:12:48;;;;;;;8.60;7.05;;;13.00;58.90;;;;;;4972979;28;20046;-55
2021/10/11 10:15:31;;;;;;;8.25;6.85;;;13.00;59.00;;;;;;4970976;28;21045;-55
2021/10/11 10:18:05;;;;;;;8.70;6.72;;;13.10;59.10;;;;;;4961471;28;20133;-56
2021/10/11 10:20:31;;;;;;;8.35;6.63;;;13.10;59.20;;;;;;4965700;28;20038;-55
2021/10/11 10:22:58;;;;;;;8.38;6.45;;;13.20;59.40;;;;;;4966097;28;20033;-55
2021/10/11 10:25:24;;;;;;;8.38;6.40;;;13.10;59.20;;;;;;4973764;28;20059;-55
2021/10/11 10:27:54;;;;;;;8.88;6.95;;;13.20;59.20;;;;;;4966990;28;20082;-55
2021/10/11 10:30:23;;;;;;;9.77;6.60;;;13.20;59.20;;;;;;4967346;28;20022;-54
2021/10/11 10:32:57;;;;;;;9.43;6.80;;;13.20;59.30;;;;;;4968524;28;20030;-56
2021/10/11 10:35:24;;;;;;;10.45;7.45;;;13.30;59.40;;;;;;4969368;28;20030;-56
2021/10/11 10:37:50;;;;;;;9.05;6.93;;;13.30;59.50;;;;;;4967258;28;20054;-52
2021/10/11 10:40:18;;;;;;;9.57;7.55;;;13.30;59.40;;;;;;4972715;28;20538;-55
2021/10/11 10:42:44;;;;;;;10.07;7.60;;;13.30;59.30;;;;;;4972557;28;20883;-56
2021/10/11 10:45:22;;;;;;;8.57;6.70;;;13.30;59.00;;;;;;4971081;28;20030;-55
2021/10/11 10:47:50;;;;;;;8.18;6.80;;;13.30;58.80;;;;;;4973933;28;20142;-55
2021/10/11 10:50:21;;;;;;;8.38;6.22;;;13.30;58.80;;;;;;4970760;28;20038;-56
2021/10/11 10:52:52;;;;;;;9.55;5.70;;;13.30;58.50;;;;;;4968141;28;20382;-55
2021/10/11 10:55:18;;;;;;;7.50;5.70;;;13.30;58.40;;;;;;4970102;28;20034;-54
2021/10/11 10:57:44;;;;;;;8.40;5.90;;;13.30;58.10;;;;;;4970354;28;20045;-55
2021/10/11 11:00:16;;;;;;;6.28;4.80;;;13.30;57.80;;;;;;4970589;28;20026;-53
2021/10/11 11:02:50;;;;;;;7.00;4.88;;;13.40;57.60;;;;;;4970975;28;20683;-53
2021/10/11 11:05:18;;;;;;;6.30;4.82;;;13.40;57.60;;;;;;4977108;28;20105;-56
2021/10/11 11:07:45;;;;;;;7.47;5.10;;;13.40;57.60;;;;;;4974877;28;20030;-55
2021/10/11 11:10:23;;;;;;;7.50;5.13;;;13.40;57.40;;;;;;4982951;28;20606;-53
2021/10/11 11:13:00;;;;;;;8.82;4.53;;;13.50;57.30;;;;;;4979627;28;20031;-56
2021/10/11 11:15:39;;;;;;;5.28;4.70;;;13.50;57.00;;;;;;4974457;28;20049;-56
2021/10/11 11:18:10;;;;;;;5.93;4.88;;;13.60;57.20;;;;;;4974842;28;20951;-55
2021/10/11 11:20:39;;;;;;;6.90;5.30;;;13.50;57.20;;;;;;4975248;28;20027;-55
2021/10/11 11:23:07;;;;;;;5.53;4.53;;;13.60;57.10;;;;;;4976041;28;20134;-55
2021/10/11 11:25:35;;;;;;;7.45;5.60;;;13.60;56.90;;;;;;4964434;28;20061;-55
2021/10/11 11:28:06;;;;;;;7.45;5.20;;;13.60;56.80;;;;;;4979555;28;20038;-55
2021/10/11 11:30:32;;;;;;;9.88;5.90;;;13.60;56.70;;;;;;4978930;28;20109;-56
2021/10/11 11:33:10;;;;;;;6.32;4.85;;;13.60;56.80;;;;;;4979433;28;20048;-55
2021/10/11 11:35:43;;;;;;;6.30;4.95;;;13.60;56.70;;;;;;4971843;28;20034;-55
2021/10/11 11:38:10;;;;;;;7.20;4.57;;;13.70;56.60;;;;;;4967281;28;20149;-56
2021/10/11 11:40:45;;;;;;;7.07;5.20;;;13.70;56.40;;;;;;4975913;28;20066;-55
2021/10/11 11:43:12;;;;;;;6.22;4.45;;;13.70;56.20;;;;;;4973513;28;20034;-56
2021/10/11 11:45:40;;;;;;;6.20;4.93;;;13.70;55.80;;;;;;4977454;28;20486;-56
2021/10/11 11:48:21;;;;;;;7.22;4.50;;;13.70;55.80;;;;;;4978410;28;20037;-56
2021/10/11 11:50:50;;;;;;;6.88;4.68;;;13.70;55.00;;;;;;4973448;28;20551;-53
2021/10/11 11:53:18;;;;;;;5.43;4.13;;;13.70;54.80;;;;;;4973766;28;20104;-56
2021/10/11 11:55:47;;;;;;;6.53;4.38;;;13.70;54.50;;;;;;4981065;28;20022;-54
2021/10/11 11:58:13;;;;;;;7.38;5.10;;;13.70;54.30;;;;;;4973020;28;20044;-54
2021/10/11 12:00:43;;;;;;;9.13;4.68;;;13.70;54.20;;;;;;4963451;28;20181;-55
2021/10/11 12:03:11;;;;;;;8.02;4.40;;;13.70;53.90;;;;;;4970406;28;20045;-55
2021/10/11 12:05:37;;;;;;;6.60;4.22;;;13.70;53.80;;;;;;4965918;28;20394;-56
2021/10/11 12:08:03;;;;;;;5.32;3.83;;;13.80;53.70;;;;;;4963149;28;20094;-55
2021/10/11 12:10:29;;;;;;;6.63;3.95;;;13.80;53.40;;;;;;4965638;28;20026;-56
2021/10/11 12:13:03;;;;;;;5.55;4.20;;;13.80;53.20;;;;;;4968311;28;20031;-56
2021/10/11 12:15:30;;;;;;;5.45;4.10;;;13.80;52.80;;;;;;4959358;28;20050;-55
2021/10/11 12:18:05;;;;;;;5.00;4.32;;;13.80;52.60;;;;;;4963576;28;20038;-55
2021/10/11 12:20:51;;;;;;;5.22;4.07;;;13.80;52.40;;;;;;4971767;28;20065;-56
2021/10/11 12:23:18;;;;;;;5.82;4.20;;;13.90;52.20;;;;;;4969000;28;20200;-53
2021/10/11 12:25:45;;;;;;;6.38;4.68;;;13.90;52.50;;;;;;4964276;28;20479;-56
2021/10/11 12:28:13;;;;;;;6.03;4.65;;;13.90;52.50;;;;;;4968326;28;20026;-53
2021/10/11 12:30:41;;;;;;;6.80;4.50;;;13.90;52.20;;;;;;4968199;28;20034;-56
2021/10/11 12:33:18;;;;;;;6.40;4.60;;;13.90;52.10;;;;;;4960033;28;20033;-56
2021/10/11 12:35:46;;;;;;;6.28;4.70;;;13.90;51.90;;;;;;4957508;28;20037;-56